createdAt,value
2022-11-16T00:11:53.853Z,35.8
2022-11-16T00:27:36.169Z,35.09
2022-11-16T00:43:18.851Z,35.3
2022-11-16T00:59:01.952Z,33.59
2022-11-16T01:14:45.027Z,33.9
2022-11-16T01:30:27.356Z,34.2
2022-11-16T01:46:09.538Z,32.5
2022-11-16T02:01:52.116Z,31.2
2022-11-16T02:17:35.087Z,31.1
2022-11-16T02:33:17.740Z,30
2022-11-16T02:49:00.557Z,28
2022-11-16T03:04:43.427Z,31.2
2022-11-16T03:20:26.543Z,33.4
2022-11-16T03:36:09.192Z,41.7
2022-11-16T03:51:51.614Z,44.3
2022-11-16T04:07:34.108Z,47.1
2022-11-16T04:23:17.013Z,47.2
2022-11-16T04:39:00.112Z,47.2
2022-11-16T04:54:42.558Z,44.7
2022-11-16T05:10:25.071Z,44.4
2022-11-16T05:26:07.450Z,44.7
2022-11-16T05:41:50.414Z,45.6
2022-11-16T05:57:33.253Z,45.5
2022-11-16T06:13:15.819Z,46.4
2022-11-16T06:44:40.824Z,46.9
2022-11-16T07:00:23.551Z,45
2022-11-16T07:16:06.456Z,45.6
2022-11-16T07:31:49.355Z,42.9
2022-11-16T07:47:31.640Z,42.7
2022-11-16T08:03:13.986Z,41.4
2022-11-16T08:18:56.127Z,40.2
2022-11-16T08:34:38.299Z,38.59
2022-11-16T08:50:20.810Z,30.2
2022-11-16T09:06:03.340Z,31.7
2022-11-16T09:21:45.718Z,27.8
2022-11-16T09:37:28.110Z,20.9
2022-11-16T09:53:10.272Z,15.3
2022-11-16T10:08:52.384Z,15.3
2022-11-16T10:24:34.539Z,17.1
2022-11-16T10:40:17.262Z,16.9
2022-11-16T10:56:00.159Z,17.29
2022-11-16T11:11:43.066Z,17.79
2022-11-16T11:27:25.420Z,17.7
2022-11-16T11:43:08.379Z,18.1
2022-11-16T11:58:50.966Z,19.2
2022-11-16T12:14:33.279Z,19.5
2022-11-16T12:30:16.096Z,20
2022-11-16T12:45:58.784Z,19.5
2022-11-16T13:01:40.969Z,18.29
2022-11-16T13:17:23.528Z,18.5
2022-11-16T13:33:06.108Z,16.6
2022-11-16T13:48:48.351Z,16.79
2022-11-16T14:04:30.474Z,15.2
2022-11-16T14:20:13.376Z,15.6
2022-11-16T14:35:56.086Z,14.7
2022-11-16T14:51:38.291Z,15.4
2022-11-16T15:07:20.760Z,14.5
2022-11-16T15:23:03.110Z,14.5
2022-11-16T15:38:45.281Z,14.5
2022-11-16T15:39:32.685Z,14.7
2022-11-16T15:55:15.577Z,14.3
2022-11-16T16:10:58.022Z,13.3
2022-11-16T16:26:40.904Z,12.1
2022-11-16T16:42:23.769Z,12.5
2022-11-16T16:58:06.526Z,12
2022-11-16T17:13:48.751Z,9.8
2022-11-16T17:29:31.681Z,10.1
2022-11-16T17:45:14.676Z,9.8
2022-11-16T18:00:57.754Z,9.1
2022-11-16T18:16:40.174Z,9
2022-11-16T18:32:22.636Z,8.1
2022-11-16T18:48:04.969Z,8.3
2022-11-16T19:03:47.856Z,8.39
2022-11-16T19:19:30.030Z,8
2022-11-16T19:35:12.409Z,7.2
2022-11-16T19:50:55.331Z,7.1
2022-11-16T20:06:38.289Z,7.6
2022-11-16T20:22:20.961Z,7.4
2022-11-16T20:38:03.959Z,6.8
2022-11-16T20:53:46.532Z,6.8
2022-11-16T21:09:28.988Z,6.7
2022-11-16T21:25:12.078Z,6.9
2022-11-16T21:40:55.018Z,6.2
2022-11-16T21:56:37.856Z,7
2022-11-16T22:12:20.678Z,6.9
2022-11-16T22:28:03.809Z,6.3
2022-11-16T22:43:46.285Z,6.9
2022-11-16T22:59:28.476Z,7.2
2022-11-16T23:15:11.240Z,8.3
2022-11-16T23:30:53.701Z,8.39
2022-11-16T23:46:36.497Z,8.8
